createdAt,value
2023-05-31T00:00:34.863Z,0.00
2023-05-31T00:01:34.891Z,0.00
2023-05-31T00:02:35.035Z,0.00
2023-05-31T00:03:34.888Z,0.00
2023-05-31T00:04:34.857Z,0.00
2023-05-31T00:05:34.858Z,0.00
2023-05-31T00:06:35.837Z,0.00
2023-05-31T00:07:34.850Z,0.00
2023-05-31T00:08:34.815Z,0.00
2023-05-31T00:09:34.837Z,0.00
2023-05-31T00:10:34.811Z,0.00
2023-05-31T00:11:34.825Z,0.00
2023-05-31T00:12:34.859Z,0.00
2023-05-31T00:13:34.783Z,0.00
2023-05-31T00:14:35.765Z,0.00
2023-05-31T00:15:34.779Z,0.00
2023-05-31T00:17:48.998Z,0.00
2023-05-31T00:18:36.857Z,0.00
2023-05-31T00:19:34.796Z,0.00
2023-05-31T00:20:34.782Z,0.00
2023-05-31T00:21:34.787Z,0.00
2023-05-31T00:22:34.748Z,0.00
2023-05-31T00:23:34.891Z,0.00
2023-05-31T00:24:34.728Z,0.00
2023-05-31T00:25:34.795Z,0.00
2023-05-31T00:26:34.724Z,0.00
2023-05-31T00:27:34.708Z,0.00
2023-05-31T00:28:36.559Z,0.00
2023-05-31T00:29:34.690Z,0.00
2023-05-31T00:30:34.779Z,0.00
2023-05-31T00:31:34.717Z,0.00
2023-05-31T00:32:34.669Z,0.00
2023-05-31T00:33:34.668Z,0.00
2023-05-31T00:34:34.635Z,0.00
2023-05-31T00:35:34.623Z,0.00
2023-05-31T00:36:34.636Z,0.00
2023-05-31T00:37:34.641Z,0.00
2023-05-31T00:38:34.621Z,0.00
2023-05-31T00:39:34.615Z,0.00
2023-05-31T00:40:34.625Z,0.00
2023-05-31T00:41:34.600Z,0.00
2023-05-31T00:42:34.653Z,0.00
2023-05-31T00:43:34.572Z,0.00
2023-05-31T00:44:34.623Z,0.00
2023-05-31T00:45:34.578Z,0.00
2023-05-31T00:46:34.561Z,0.00
2023-05-31T00:47:34.615Z,0.00
2023-05-31T00:48:34.631Z,0.00
2023-05-31T00:49:34.549Z,0.00
2023-05-31T00:50:34.542Z,0.00
2023-05-31T00:51:34.570Z,0.00
2023-05-31T00:52:35.554Z,0.00
2023-05-31T00:53:34.576Z,0.00
2023-05-31T00:54:34.519Z,0.00
2023-05-31T00:55:34.502Z,0.00
2023-05-31T00:56:34.507Z,0.00
2023-05-31T00:57:34.484Z,0.00
2023-05-31T00:58:34.518Z,0.00
2023-05-31T00:59:34.561Z,0.00
2023-05-31T01:00:34.479Z,0.00
2023-05-31T01:01:34.966Z,0.00
2023-05-31T01:02:34.499Z,0.00
2023-05-31T01:03:34.466Z,0.00
2023-05-31T01:04:34.464Z,0.00
2023-05-31T01:05:34.459Z,0.00
2023-05-31T01:06:34.472Z,0.00
2023-05-31T01:07:34.488Z,0.00
2023-05-31T01:08:34.453Z,0.00
2023-05-31T01:09:34.419Z,0.00
2023-05-31T01:10:34.431Z,0.00
2023-05-31T01:11:34.409Z,0.00
2023-05-31T01:12:34.396Z,0.00
2023-05-31T01:13:34.406Z,0.00
2023-05-31T01:14:34.460Z,0.00
2023-05-31T01:15:34.379Z,0.00
2023-05-31T01:16:34.511Z,0.00
2023-05-31T01:17:34.381Z,0.00
2023-05-31T01:18:34.376Z,0.00
2023-05-31T01:19:34.378Z,0.00
2023-05-31T01:20:34.436Z,0.00
2023-05-31T01:21:34.411Z,0.00
2023-05-31T01:22:34.318Z,0.00
2023-05-31T01:23:36.692Z,0.00
2023-05-31T01:24:34.303Z,0.00
2023-05-31T01:25:34.294Z,0.00
2023-05-31T01:26:34.309Z,0.00
2023-05-31T01:27:34.285Z,0.00
2023-05-31T01:28:34.268Z,0.00
2023-05-31T01:29:34.322Z,0.00
2023-05-31T01:30:34.307Z,0.00
2023-05-31T01:31:34.379Z,0.00
2023-05-31T01:32:34.286Z,0.00
2023-05-31T01:33:34.239Z,0.00
2023-05-31T01:34:34.240Z,0.00
2023-05-31T01:35:34.230Z,0.00
2023-05-31T01:36:34.270Z,0.00
2023-05-31T01:37:34.248Z,0.00
2023-05-31T01:38:34.213Z,0.00
2023-05-31T01:39:34.196Z,0.00
2023-05-31T01:40:34.224Z,0.00
2023-05-31T01:41:34.236Z,0.00
2023-05-31T01:42:34.208Z,0.00
2023-05-31T01:43:34.181Z,0.00
2023-05-31T01:44:34.174Z,0.00
2023-05-31T01:45:35.177Z,0.00
2023-05-31T01:46:34.474Z,0.00
2023-05-31T01:47:34.191Z,0.00
2023-05-31T01:48:34.156Z,0.00
2023-05-31T01:49:34.155Z,0.00
2023-05-31T01:50:34.120Z,0.00
2023-05-31T01:51:34.159Z,0.00
2023-05-31T01:52:34.148Z,0.00
2023-05-31T01:53:34.133Z,0.00
2023-05-31T01:54:34.148Z,0.00
2023-05-31T01:55:34.159Z,0.00
2023-05-31T01:56:34.081Z,0.00
2023-05-31T01:57:34.094Z,0.00
2023-05-31T01:58:34.145Z,0.00
2023-05-31T01:59:34.130Z,0.00
2023-05-31T02:00:34.084Z,0.00
2023-05-31T02:01:34.099Z,0.00
2023-05-31T02:02:34.101Z,0.00
2023-05-31T02:03:34.060Z,0.00
2023-05-31T02:04:34.063Z,0.00
2023-05-31T02:05:34.074Z,0.00
2023-05-31T02:06:34.053Z,0.00
2023-05-31T02:07:34.005Z,0.00
2023-05-31T02:08:34.018Z,0.00
2023-05-31T02:09:34.036Z,0.00
2023-05-31T02:10:34.054Z,0.00
2023-05-31T02:11:34.019Z,0.00
2023-05-31T02:12:33.995Z,0.00
2023-05-31T02:13:33.989Z,0.00
2023-05-31T02:14:33.950Z,0.00
2023-05-31T02:15:33.992Z,0.00
2023-05-31T02:16:33.995Z,0.00
2023-05-31T02:17:34.081Z,0.00
2023-05-31T02:18:34.088Z,0.00
2023-05-31T02:19:33.937Z,0.00
2023-05-31T02:20:33.968Z,0.00
2023-05-31T02:21:33.945Z,0.00
2023-05-31T02:22:33.940Z,0.00
2023-05-31T02:23:33.919Z,0.00
2023-05-31T02:24:33.928Z,0.00
2023-05-31T02:25:33.903Z,0.00
2023-05-31T02:26:33.893Z,0.00
2023-05-31T02:27:34.947Z,0.00
2023-05-31T02:28:33.880Z,0.00
2023-05-31T02:29:33.883Z,0.00
2023-05-31T02:30:33.865Z,0.00
2023-05-31T02:31:33.926Z,0.00
2023-05-31T02:32:33.882Z,0.00
2023-05-31T02:33:33.854Z,0.00
2023-05-31T02:34:33.872Z,0.00
2023-05-31T02:35:33.861Z,0.00
2023-05-31T02:36:33.807Z,0.00
2023-05-31T02:37:33.825Z,0.00
2023-05-31T02:38:33.841Z,0.00
2023-05-31T02:39:33.824Z,0.00
2023-05-31T02:40:33.850Z,0.00
2023-05-31T02:41:33.786Z,0.00
2023-05-31T02:42:33.785Z,0.00
2023-05-31T02:43:33.755Z,0.00
2023-05-31T02:44:33.778Z,0.00
2023-05-31T02:45:33.809Z,0.00
2023-05-31T02:46:33.818Z,0.00
2023-05-31T02:47:33.903Z,0.00
2023-05-31T02:48:33.804Z,0.00
2023-05-31T02:49:33.826Z,0.00
2023-05-31T02:50:33.776Z,0.00
2023-05-31T02:51:33.724Z,0.00
2023-05-31T02:52:33.728Z,0.00
2023-05-31T02:53:33.693Z,0.00
2023-05-31T02:54:33.718Z,0.00
2023-05-31T02:55:33.707Z,0.00
2023-05-31T02:56:33.720Z,0.00
2023-05-31T02:57:33.664Z,0.00
2023-05-31T02:58:33.684Z,0.00
2023-05-31T02:59:33.669Z,0.00
2023-05-31T03:00:33.653Z,0.00
2023-05-31T03:01:33.671Z,0.00
2023-05-31T03:02:33.738Z,0.00
2023-05-31T03:03:33.712Z,0.00
2023-05-31T03:04:33.645Z,0.00
2023-05-31T03:05:33.595Z,0.00
2023-05-31T03:06:33.662Z,0.00
2023-05-31T03:07:33.615Z,0.00
2023-05-31T03:08:33.612Z,5.62
2023-05-31T03:09:33.685Z,5.62
2023-05-31T03:10:33.596Z,5.62
2023-05-31T03:11:33.628Z,5.62
2023-05-31T03:12:33.646Z,5.62
2023-05-31T03:13:33.596Z,5.62
2023-05-31T03:14:33.715Z,5.62
2023-05-31T03:15:33.630Z,5.62
2023-05-31T03:16:33.610Z,5.62
2023-05-31T03:17:33.587Z,11.25
2023-05-31T03:18:33.594Z,11.25
2023-05-31T03:19:33.622Z,11.25
2023-05-31T03:20:33.576Z,11.25
2023-05-31T03:21:33.560Z,11.25
2023-05-31T03:22:33.528Z,11.25
2023-05-31T03:23:33.537Z,11.25
2023-05-31T03:24:33.554Z,16.88
2023-05-31T03:25:33.558Z,16.88
2023-05-31T03:26:33.509Z,16.88
2023-05-31T03:27:33.507Z,16.88
2023-05-31T03:28:33.583Z,16.88
2023-05-31T03:29:34.120Z,22.50
2023-05-31T03:30:33.517Z,22.50
2023-05-31T03:31:33.584Z,22.50
2023-05-31T03:32:35.433Z,22.50
2023-05-31T03:33:33.455Z,22.50
2023-05-31T03:34:33.462Z,28.12
2023-05-31T03:35:33.508Z,28.12
2023-05-31T03:36:33.437Z,28.12
2023-05-31T03:37:33.469Z,28.12
2023-05-31T03:38:33.433Z,28.12
2023-05-31T03:39:33.417Z,33.75
2023-05-31T03:40:33.438Z,33.75
2023-05-31T03:41:33.444Z,33.75
2023-05-31T03:42:33.391Z,33.75
2023-05-31T03:43:33.403Z,39.38
2023-05-31T03:44:33.447Z,39.38
2023-05-31T03:45:33.413Z,39.38
2023-05-31T03:46:33.378Z,39.38
2023-05-31T03:47:33.432Z,39.38
2023-05-31T03:48:33.366Z,45.00
2023-05-31T03:49:33.378Z,45.00
2023-05-31T03:50:33.381Z,45.00
2023-05-31T03:51:34.561Z,45.00
2023-05-31T03:52:33.336Z,50.62
2023-05-31T03:53:33.316Z,50.62
2023-05-31T03:54:33.314Z,50.62
2023-05-31T03:55:33.299Z,50.62
2023-05-31T03:56:33.338Z,50.62
2023-05-31T03:57:33.327Z,56.25
2023-05-31T03:58:33.271Z,56.25
2023-05-31T03:59:33.339Z,56.25
2023-05-31T04:00:33.272Z,56.25
2023-05-31T04:01:33.292Z,61.88
2023-05-31T04:02:34.142Z,61.88
2023-05-31T04:03:33.404Z,61.88
2023-05-31T04:04:33.297Z,61.88
2023-05-31T04:05:34.248Z,67.50
2023-05-31T04:06:33.246Z,67.50
2023-05-31T04:07:33.225Z,67.50
2023-05-31T04:08:33.215Z,73.12
2023-05-31T04:09:33.273Z,73.12
2023-05-31T04:10:33.202Z,73.12
2023-05-31T04:11:33.220Z,73.12
2023-05-31T04:12:33.188Z,78.75
2023-05-31T04:13:33.233Z,78.75
2023-05-31T04:14:33.221Z,84.38
2023-05-31T04:15:33.171Z,84.38
2023-05-31T04:16:33.331Z,84.38
2023-05-31T04:17:33.184Z,84.38
2023-05-31T04:18:33.137Z,90.00
2023-05-31T04:19:33.157Z,90.00
2023-05-31T04:20:33.203Z,90.00
2023-05-31T04:21:33.113Z,95.62
2023-05-31T04:22:33.096Z,95.62
2023-05-31T04:23:33.159Z,95.62
2023-05-31T04:24:33.083Z,101.25
2023-05-31T04:25:33.111Z,101.25
2023-05-31T04:26:33.071Z,101.25
2023-05-31T04:27:33.192Z,106.88
2023-05-31T04:28:33.134Z,106.88
2023-05-31T04:29:33.045Z,106.88
2023-05-31T04:30:33.119Z,112.50
2023-05-31T04:31:49.325Z,112.50
2023-05-31T04:32:35.108Z,112.50
2023-05-31T04:33:33.067Z,112.50
2023-05-31T04:34:33.032Z,118.12
2023-05-31T04:35:32.988Z,118.12
2023-05-31T04:36:33.013Z,118.12
2023-05-31T04:37:32.981Z,118.12
2023-05-31T04:38:32.992Z,118.12
2023-05-31T04:39:32.976Z,118.12
2023-05-31T04:40:33.142Z,118.12
2023-05-31T04:41:33.057Z,123.75
2023-05-31T04:42:32.958Z,123.75
2023-05-31T04:43:33.630Z,123.75
2023-05-31T04:44:33.043Z,129.38
2023-05-31T04:45:33.010Z,129.38
2023-05-31T04:46:33.087Z,129.38
2023-05-31T04:47:32.991Z,129.38
2023-05-31T04:48:33.002Z,135.00
2023-05-31T04:49:37.465Z,135.00
2023-05-31T04:50:34.965Z,135.00
2023-05-31T04:51:32.968Z,140.62
2023-05-31T04:52:33.011Z,140.62
2023-05-31T04:53:32.984Z,146.25
2023-05-31T04:54:32.953Z,140.62
2023-05-31T04:55:32.959Z,140.62
2023-05-31T04:56:32.897Z,146.25
2023-05-31T04:57:33.232Z,146.25
2023-05-31T04:58:33.853Z,146.25
2023-05-31T04:59:32.856Z,146.25
2023-05-31T05:00:32.869Z,146.25
2023-05-31T05:01:32.897Z,151.88
2023-05-31T05:02:32.846Z,151.88
2023-05-31T05:03:32.850Z,151.88
2023-05-31T05:04:32.805Z,151.88
2023-05-31T05:05:32.968Z,146.25
2023-05-31T05:06:32.833Z,157.50
2023-05-31T05:07:32.822Z,157.50
2023-05-31T05:08:32.834Z,157.50
2023-05-31T05:09:32.773Z,157.50
2023-05-31T05:10:32.748Z,157.50
2023-05-31T05:11:32.768Z,157.50
2023-05-31T05:12:32.802Z,157.50
2023-05-31T05:13:32.768Z,163.12
2023-05-31T05:14:32.797Z,163.12
2023-05-31T05:15:32.779Z,163.12
2023-05-31T05:16:32.808Z,163.12
2023-05-31T05:17:32.724Z,163.12
2023-05-31T05:18:32.748Z,163.12
2023-05-31T05:19:32.704Z,168.75
2023-05-31T05:20:32.741Z,163.12
2023-05-31T05:21:32.842Z,168.75
2023-05-31T05:22:32.702Z,174.38
2023-05-31T05:23:32.813Z,174.38
2023-05-31T05:24:32.737Z,168.75
2023-05-31T05:25:32.708Z,168.75
2023-05-31T05:26:32.644Z,174.38
2023-05-31T05:27:32.669Z,168.75
2023-05-31T05:28:32.731Z,174.38
2023-05-31T05:29:32.646Z,180.00
2023-05-31T05:30:32.644Z,174.38
2023-05-31T05:31:33.619Z,174.38
2023-05-31T05:32:32.752Z,180.00
2023-05-31T05:33:32.639Z,174.38
2023-05-31T05:34:32.690Z,180.00
2023-05-31T05:35:32.736Z,174.38
2023-05-31T05:36:32.623Z,180.00
2023-05-31T05:37:32.597Z,180.00
2023-05-31T05:38:32.578Z,180.00
2023-05-31T05:39:32.609Z,180.00
2023-05-31T05:40:32.652Z,180.00
2023-05-31T05:41:32.571Z,185.62
2023-05-31T05:42:32.746Z,180.00
2023-05-31T05:43:32.554Z,185.62
2023-05-31T05:44:33.257Z,191.25
2023-05-31T05:45:32.523Z,196.88
2023-05-31T05:46:32.598Z,196.88
2023-05-31T05:47:32.674Z,196.88
2023-05-31T05:48:32.533Z,185.62
2023-05-31T05:49:32.500Z,202.50
2023-05-31T05:50:32.507Z,185.62
2023-05-31T05:51:32.473Z,185.62
2023-05-31T05:52:32.604Z,191.25
2023-05-31T05:53:32.524Z,191.25
2023-05-31T05:54:32.502Z,191.25
2023-05-31T05:55:32.535Z,191.25
2023-05-31T05:56:32.464Z,191.25
2023-05-31T05:57:32.502Z,191.25
2023-05-31T05:58:32.469Z,191.25
2023-05-31T05:59:32.525Z,196.88
2023-05-31T06:00:32.438Z,196.88
2023-05-31T06:01:34.181Z,191.25
2023-05-31T06:02:32.468Z,191.25
2023-05-31T06:03:32.502Z,196.88
2023-05-31T06:04:32.424Z,191.25
2023-05-31T06:05:32.528Z,196.88
2023-05-31T06:06:32.416Z,202.50
2023-05-31T06:07:32.387Z,196.88
2023-05-31T06:08:32.379Z,202.50
2023-05-31T06:09:32.390Z,202.50
2023-05-31T06:10:32.365Z,213.75
2023-05-31T06:11:32.448Z,202.50
2023-05-31T06:12:32.459Z,202.50
2023-05-31T06:13:32.574Z,202.50
2023-05-31T06:14:32.414Z,202.50
2023-05-31T06:15:32.418Z,202.50
2023-05-31T06:16:32.498Z,202.50
2023-05-31T06:17:32.473Z,202.50
2023-05-31T06:18:32.321Z,208.12
2023-05-31T06:19:32.476Z,202.50
2023-05-31T06:20:32.458Z,208.12
2023-05-31T06:21:32.321Z,208.12
2023-05-31T06:22:32.401Z,208.12
2023-05-31T06:23:32.313Z,208.12
2023-05-31T06:24:32.326Z,208.12
2023-05-31T06:25:32.348Z,213.75
2023-05-31T06:26:32.348Z,208.12
2023-05-31T06:27:32.317Z,208.12
2023-05-31T06:28:36.906Z,208.12
2023-05-31T06:29:34.281Z,208.12
2023-05-31T06:30:32.277Z,213.75
2023-05-31T06:31:32.314Z,213.75
2023-05-31T06:32:32.350Z,213.75
2023-05-31T06:33:32.229Z,208.12
2023-05-31T06:34:33.025Z,213.75
2023-05-31T06:35:33.477Z,219.38
2023-05-31T06:36:32.244Z,213.75
2023-05-31T06:37:32.312Z,219.38
2023-05-31T06:38:33.214Z,219.38
2023-05-31T06:39:32.262Z,225.00
2023-05-31T06:40:32.385Z,219.38
2023-05-31T06:41:32.232Z,219.38
2023-05-31T06:42:32.243Z,219.38
2023-05-31T06:43:32.215Z,225.00
2023-05-31T06:44:34.597Z,219.38
2023-05-31T06:45:33.172Z,213.75
2023-05-31T06:46:32.276Z,225.00
2023-05-31T06:47:32.386Z,225.00
2023-05-31T06:48:32.271Z,225.00
2023-05-31T06:49:32.298Z,230.62
2023-05-31T06:50:32.271Z,230.62
2023-05-31T06:51:32.167Z,230.62
2023-05-31T06:52:32.224Z,230.62
2023-05-31T06:53:32.176Z,230.62
2023-05-31T06:54:32.138Z,236.25
2023-05-31T06:55:32.123Z,236.25
2023-05-31T06:56:32.102Z,236.25
2023-05-31T06:57:32.114Z,236.25
2023-05-31T06:58:32.127Z,236.25
2023-05-31T06:59:32.062Z,236.25
2023-05-31T07:00:32.045Z,236.25
2023-05-31T07:01:32.099Z,247.50
2023-05-31T07:02:32.113Z,241.88
2023-05-31T07:03:32.078Z,241.88
2023-05-31T07:04:32.047Z,241.88
2023-05-31T07:05:32.047Z,241.88
2023-05-31T07:06:32.078Z,247.50
2023-05-31T07:07:32.558Z,253.12
2023-05-31T07:08:32.062Z,247.50
2023-05-31T07:09:32.121Z,253.12
2023-05-31T07:10:32.007Z,247.50
2023-05-31T07:11:32.030Z,253.12
2023-05-31T07:12:32.045Z,253.12
2023-05-31T07:13:32.012Z,264.38
2023-05-31T07:14:32.183Z,331.88
2023-05-31T07:15:31.985Z,613.12
2023-05-31T07:16:32.274Z,804.38
2023-05-31T07:17:32.848Z,855.00
2023-05-31T07:18:31.987Z,821.25
2023-05-31T07:19:31.979Z,770.62
2023-05-31T07:20:32.057Z,753.75
2023-05-31T07:21:31.988Z,742.50
2023-05-31T07:22:32.038Z,714.38
2023-05-31T07:23:32.606Z,703.12
2023-05-31T07:24:32.105Z,703.12
2023-05-31T07:25:32.007Z,720.00
2023-05-31T07:26:31.931Z,759.38
2023-05-31T07:27:31.909Z,765.00
2023-05-31T07:28:31.921Z,708.75
2023-05-31T07:29:32.092Z,680.62
2023-05-31T07:30:32.180Z,680.62
2023-05-31T07:31:32.763Z,691.88
2023-05-31T07:32:31.951Z,675.00
2023-05-31T07:33:32.097Z,697.50
2023-05-31T07:34:31.946Z,748.12
2023-05-31T07:35:32.008Z,748.12
2023-05-31T07:36:32.117Z,731.25
2023-05-31T07:37:32.062Z,736.88
2023-05-31T07:38:31.972Z,742.50
2023-05-31T07:39:31.937Z,731.25
2023-05-31T07:40:31.881Z,742.50
2023-05-31T07:41:32.217Z,759.38
2023-05-31T07:42:32.132Z,736.88
2023-05-31T07:43:32.797Z,736.88
2023-05-31T07:44:32.990Z,793.12
2023-05-31T07:45:31.937Z,826.88
2023-05-31T07:46:31.856Z,798.75
2023-05-31T07:47:31.893Z,810.00
2023-05-31T07:48:31.857Z,843.75
2023-05-31T07:49:32.463Z,798.75
2023-05-31T07:50:32.823Z,770.62
2023-05-31T07:51:32.196Z,781.88
2023-05-31T07:52:31.756Z,826.88
2023-05-31T07:53:31.761Z,877.50
2023-05-31T07:54:31.777Z,894.38
2023-05-31T07:55:31.779Z,905.62
2023-05-31T07:56:31.732Z,922.50
2023-05-31T07:57:31.724Z,916.88
2023-05-31T07:58:31.707Z,939.38
2023-05-31T07:59:31.858Z,928.12
2023-05-31T08:00:33.123Z,911.25
2023-05-31T08:01:31.782Z,961.88
2023-05-31T08:02:31.906Z,967.50
2023-05-31T08:03:31.801Z,928.12
2023-05-31T08:04:31.673Z,1029.38
2023-05-31T08:05:31.716Z,1136.25
2023-05-31T08:06:31.826Z,1063.12
2023-05-31T08:07:31.787Z,1018.12
2023-05-31T08:08:31.981Z,1040.62
2023-05-31T08:09:31.724Z,1091.25
2023-05-31T08:10:31.784Z,1215.00
2023-05-31T08:11:31.637Z,1496.25
2023-05-31T08:12:32.162Z,1681.88
2023-05-31T08:13:32.610Z,1648.12
2023-05-31T08:14:31.731Z,1530.00
2023-05-31T08:15:31.629Z,1665.00
2023-05-31T08:16:31.636Z,1878.75
2023-05-31T08:17:32.177Z,2227.50
2023-05-31T08:18:31.589Z,2334.38
2023-05-31T08:19:31.543Z,2244.38
2023-05-31T08:20:32.495Z,1929.38
2023-05-31T08:21:32.842Z,1586.25
2023-05-31T08:22:31.532Z,1035.00
2023-05-31T08:23:31.553Z,1215.00
2023-05-31T08:24:31.588Z,1186.88
2023-05-31T08:25:31.632Z,1147.50
2023-05-31T08:26:31.535Z,1299.38
2023-05-31T08:27:31.544Z,1378.12
2023-05-31T08:28:31.500Z,1378.12
2023-05-31T08:29:32.494Z,1344.38
2023-05-31T08:30:31.545Z,1164.38
2023-05-31T08:31:31.550Z,1023.75
2023-05-31T08:32:31.637Z,1063.12
2023-05-31T08:33:31.603Z,1316.25
2023-05-31T08:34:31.616Z,1108.12
2023-05-31T08:35:31.602Z,1186.88
2023-05-31T08:36:31.554Z,1192.50
2023-05-31T08:37:31.523Z,933.75
2023-05-31T08:38:31.544Z,916.88
2023-05-31T08:39:31.581Z,911.25
2023-05-31T08:40:31.623Z,1226.25
2023-05-31T08:41:31.474Z,1395.00
2023-05-31T08:42:31.423Z,1411.88
2023-05-31T08:43:31.482Z,933.75
2023-05-31T08:44:31.400Z,1226.25
2023-05-31T08:45:31.426Z,1226.25
2023-05-31T08:46:31.446Z,1361.25
2023-05-31T08:47:31.416Z,1361.25
2023-05-31T08:48:32.196Z,1355.62
2023-05-31T08:49:31.454Z,1473.75
2023-05-31T08:50:31.370Z,1631.25
2023-05-31T08:51:31.402Z,1704.38
2023-05-31T08:52:31.354Z,1845.00
2023-05-31T08:53:31.405Z,1665.00
2023-05-31T08:54:31.374Z,1518.75
2023-05-31T08:55:31.390Z,1479.38
2023-05-31T08:56:32.192Z,1513.12
2023-05-31T08:57:31.311Z,1563.75
2023-05-31T08:58:31.359Z,1681.88
2023-05-31T08:59:31.460Z,1698.75
2023-05-31T09:00:31.327Z,1738.12
2023-05-31T09:01:31.316Z,1777.50
2023-05-31T09:02:31.348Z,1665.00
2023-05-31T09:03:31.322Z,1687.50
2023-05-31T09:04:31.316Z,1698.75
2023-05-31T09:05:31.350Z,1715.62
2023-05-31T09:06:31.317Z,1783.12
2023-05-31T09:07:31.279Z,1766.25
2023-05-31T09:08:31.250Z,1822.50
2023-05-31T09:09:31.309Z,1816.88
2023-05-31T09:10:31.517Z,1665.00
2023-05-31T09:11:31.281Z,1445.62
2023-05-31T09:12:31.291Z,1389.38
2023-05-31T09:13:31.223Z,1473.75
2023-05-31T09:14:31.281Z,1563.75
2023-05-31T09:15:31.221Z,1681.88
2023-05-31T09:16:32.235Z,1777.50
2023-05-31T09:17:31.247Z,1755.00
2023-05-31T09:18:31.270Z,1726.88
2023-05-31T09:19:31.207Z,1681.88
2023-05-31T09:20:31.285Z,1687.50
2023-05-31T09:21:31.194Z,1777.50
2023-05-31T09:22:31.167Z,1878.75
2023-05-31T09:23:31.150Z,1935.00
2023-05-31T09:24:31.164Z,1985.62
2023-05-31T09:25:31.155Z,1923.75
2023-05-31T09:26:31.166Z,1800.00
2023-05-31T09:27:31.201Z,1833.75
2023-05-31T09:28:31.149Z,1828.12
2023-05-31T09:29:31.159Z,1856.25
2023-05-31T09:30:31.115Z,1890.00
2023-05-31T09:31:31.196Z,1996.88
2023-05-31T09:32:31.153Z,2165.62
2023-05-31T09:33:31.166Z,2205.00
2023-05-31T09:34:31.108Z,2131.88
2023-05-31T09:35:31.078Z,2058.75
2023-05-31T09:36:31.052Z,2036.25
2023-05-31T09:37:31.179Z,2064.38
2023-05-31T09:38:31.068Z,2058.75
2023-05-31T09:39:31.037Z,2092.50
2023-05-31T09:40:31.079Z,2176.88
2023-05-31T09:41:31.055Z,2131.88
2023-05-31T09:42:31.105Z,2143.12
2023-05-31T09:43:31.048Z,2143.12
2023-05-31T09:44:31.089Z,1951.88
2023-05-31T09:45:31.055Z,1935.00
2023-05-31T09:46:31.197Z,2115.00
2023-05-31T09:47:31.086Z,1901.25
2023-05-31T09:48:31.025Z,1479.38
2023-05-31T09:49:31.006Z,1726.88
2023-05-31T09:50:31.073Z,1603.12
2023-05-31T09:51:31.247Z,1569.38
2023-05-31T09:52:31.027Z,1974.38
2023-05-31T09:53:31.006Z,1901.25
2023-05-31T09:54:30.984Z,1923.75
2023-05-31T09:55:31.744Z,1895.62
2023-05-31T09:56:30.967Z,2008.12
2023-05-31T09:57:31.779Z,1856.25
2023-05-31T09:58:30.991Z,1968.75
2023-05-31T09:59:30.974Z,1929.38
2023-05-31T10:00:30.964Z,1833.75
2023-05-31T10:01:31.004Z,1833.75
2023-05-31T10:02:31.033Z,1833.75
2023-05-31T10:03:30.986Z,1833.75
2023-05-31T10:04:30.940Z,1923.75
2023-05-31T10:05:30.997Z,1873.12
2023-05-31T10:06:30.918Z,1873.12
2023-05-31T10:07:30.989Z,1996.88
2023-05-31T10:08:30.925Z,2064.38
2023-05-31T10:09:30.957Z,2103.75
2023-05-31T10:10:30.944Z,2227.50
2023-05-31T10:11:30.916Z,2255.62
2023-05-31T10:12:30.944Z,2255.62
2023-05-31T10:13:31.043Z,2160.00
2023-05-31T10:14:31.709Z,2137.50
2023-05-31T10:15:30.958Z,2171.25
2023-05-31T10:16:30.897Z,2115.00
2023-05-31T10:17:30.942Z,2013.75
2023-05-31T10:18:30.902Z,1985.62
2023-05-31T10:19:30.879Z,1980.00
2023-05-31T10:20:30.942Z,1963.12
2023-05-31T10:21:30.882Z,1918.12
2023-05-31T10:22:30.906Z,1867.50
2023-05-31T10:23:30.869Z,1912.50
2023-05-31T10:24:30.944Z,1828.12
2023-05-31T10:25:30.930Z,1828.12
2023-05-31T10:26:30.908Z,2030.62
2023-05-31T10:27:30.821Z,2188.12
2023-05-31T10:28:30.845Z,2109.38
2023-05-31T10:29:30.824Z,1867.50
2023-05-31T10:30:31.299Z,1783.12
2023-05-31T10:31:31.818Z,1755.00
2023-05-31T10:32:30.881Z,1771.88
2023-05-31T10:33:30.861Z,1766.25
2023-05-31T10:34:30.854Z,1845.00
2023-05-31T10:35:30.792Z,1968.75
2023-05-31T10:36:30.768Z,2075.62
2023-05-31T10:37:30.863Z,2115.00
2023-05-31T10:38:30.795Z,2041.88
2023-05-31T10:39:30.868Z,2025.00
2023-05-31T10:40:30.833Z,2047.50
2023-05-31T10:41:30.755Z,2098.12
2023-05-31T10:42:30.730Z,1974.38
2023-05-31T10:43:30.841Z,1890.00
2023-05-31T10:44:30.807Z,1980.00
2023-05-31T10:45:30.811Z,2098.12
2023-05-31T10:46:30.803Z,2182.50
2023-05-31T10:47:30.862Z,2115.00
2023-05-31T10:48:30.756Z,2058.75
2023-05-31T10:49:30.691Z,1991.25
2023-05-31T10:50:30.700Z,2047.50
2023-05-31T10:51:30.675Z,2064.38
2023-05-31T10:52:30.714Z,2176.88
2023-05-31T10:53:30.670Z,2126.25
2023-05-31T10:54:30.660Z,2025.00
2023-05-31T10:55:30.750Z,2070.00
2023-05-31T10:56:30.653Z,2221.88
2023-05-31T10:57:31.873Z,2272.50
2023-05-31T10:58:30.679Z,2182.50
2023-05-31T10:59:30.827Z,2109.38
2023-05-31T11:00:30.714Z,2165.62
2023-05-31T11:01:30.644Z,2182.50
2023-05-31T11:02:30.675Z,2131.88
2023-05-31T11:03:30.761Z,2126.25
2023-05-31T11:04:30.868Z,2227.50
2023-05-31T11:05:30.695Z,2283.75
2023-05-31T11:06:30.783Z,2340.00
2023-05-31T11:07:30.701Z,2390.62
2023-05-31T11:08:30.781Z,2238.75
2023-05-31T11:09:30.933Z,2295.00
2023-05-31T11:10:31.005Z,2283.75
2023-05-31T11:11:30.736Z,2193.75
2023-05-31T11:12:30.629Z,2272.50
2023-05-31T11:13:30.759Z,2160.00
2023-05-31T11:14:30.945Z,2216.25
2023-05-31T11:15:30.509Z,2210.62
2023-05-31T11:16:30.581Z,2227.50
2023-05-31T11:17:30.570Z,2115.00
2023-05-31T11:18:30.598Z,2216.25
2023-05-31T11:19:30.501Z,2261.25
2023-05-31T11:20:30.560Z,2131.88
2023-05-31T11:21:30.541Z,2109.38
2023-05-31T11:22:30.510Z,2193.75
2023-05-31T11:23:30.555Z,2193.75
2023-05-31T11:24:30.468Z,2075.62
2023-05-31T11:25:30.476Z,1816.88
2023-05-31T11:26:30.446Z,1963.12
2023-05-31T11:27:30.520Z,2075.62
2023-05-31T11:28:30.445Z,2205.00
2023-05-31T11:29:30.443Z,2092.50
2023-05-31T11:30:30.439Z,2013.75
2023-05-31T11:31:30.436Z,1940.62
2023-05-31T11:32:30.432Z,2025.00
2023-05-31T11:33:30.404Z,2053.12
2023-05-31T11:34:30.438Z,2053.12
2023-05-31T11:35:30.401Z,2030.62
2023-05-31T11:36:30.398Z,2036.25
2023-05-31T11:37:30.370Z,2075.62
2023-05-31T11:38:30.379Z,2160.00
2023-05-31T11:39:30.384Z,2233.12
2023-05-31T11:40:30.591Z,2176.88
2023-05-31T11:41:30.384Z,2081.25
2023-05-31T11:42:30.413Z,2216.25
2023-05-31T11:43:30.400Z,2210.62
2023-05-31T11:44:30.407Z,2030.62
2023-05-31T11:45:30.326Z,2002.50
2023-05-31T11:46:30.394Z,2199.38
2023-05-31T11:47:30.354Z,2120.62
2023-05-31T11:48:31.223Z,2019.38
2023-05-31T11:49:30.370Z,2137.50
2023-05-31T11:50:30.315Z,2188.12
2023-05-31T11:51:30.308Z,1991.25
2023-05-31T11:52:30.337Z,1783.12
2023-05-31T11:53:30.275Z,1816.88
2023-05-31T11:54:30.289Z,1884.38
2023-05-31T11:55:30.304Z,1845.00
2023-05-31T11:56:30.262Z,1884.38
2023-05-31T11:57:30.283Z,1963.12
2023-05-31T11:58:31.271Z,1968.75
2023-05-31T11:59:30.257Z,1901.25
2023-05-31T12:00:30.304Z,1957.50
2023-05-31T12:01:30.265Z,2025.00
2023-05-31T12:02:30.570Z,1923.75
2023-05-31T12:03:30.306Z,1996.88
2023-05-31T12:04:30.261Z,2030.62
2023-05-31T12:05:30.218Z,2064.38
2023-05-31T12:06:30.243Z,1951.88
2023-05-31T12:07:30.243Z,2002.50
2023-05-31T12:08:30.259Z,2086.88
2023-05-31T12:09:30.232Z,1996.88
2023-05-31T12:10:30.236Z,1940.62
2023-05-31T12:11:30.204Z,1940.62
2023-05-31T12:12:30.186Z,1985.62
2023-05-31T12:13:30.161Z,2126.25
2023-05-31T12:14:30.207Z,2109.38
2023-05-31T12:15:30.160Z,2126.25
2023-05-31T12:16:30.203Z,2098.12
2023-05-31T12:17:30.182Z,2025.00
2023-05-31T12:18:30.176Z,2041.88
2023-05-31T12:19:30.137Z,2137.50
2023-05-31T12:20:30.206Z,2030.62
2023-05-31T12:21:30.146Z,2002.50
2023-05-31T12:22:31.093Z,1991.25
2023-05-31T12:23:30.150Z,2002.50
2023-05-31T12:24:30.189Z,1968.75
2023-05-31T12:25:30.143Z,1935.00
2023-05-31T12:26:30.102Z,1828.12
2023-05-31T12:27:44.469Z,1833.75
2023-05-31T12:28:32.136Z,1912.50
2023-05-31T12:29:31.099Z,1833.75
2023-05-31T12:30:43.473Z,1833.75
2023-05-31T12:31:32.178Z,1929.38
2023-05-31T12:32:30.159Z,1929.38
2023-05-31T12:33:30.032Z,1929.38
2023-05-31T12:34:30.070Z,1811.25
2023-05-31T12:35:30.053Z,1766.25